メインページ
METAR-TAF:

METAR-TAF

空港 :

ハノイ, ベトナム

ノイバイ国際空港

緯度: 21-01N, 経度: 105-48E, 海抜: 6m

現時点の気象観測

当レポートは37分前の12:30(UTC)に作成
北/北東の風 5kt、北/北西から北東の間で変化する
気温 15°C
湿度 59%
気圧 1024 hPa
視程10km以上
1,500メートル以下は雲なし、積乱雲なし

METAR: VVNB 241230Z 03005KT 340V050 CAVOK 15/07 Q1024 NOSIG

時間: 20:07 (13:07 UTC)

予報

当レポートは2時間7分前の11:00(UTC)に作成
予報は24日の 12時(UTC)から 25日の 12時(UTC)まで有効
の風 10kt
視程: 8000m
高度2000ftの雲はほとんどない

TAF: VVNB 241100Z 2412/2512 36010KT 8000 FEW020

4,000以上の空港の気象観測と天気予報(METAR報とTAF報)

利用可能な観測所は地図上に黄色い丸と赤い丸で示す。

丸の上にカーソルを重ねると観測所名を参照できる。

次にクリックすると気象観測と天気予報を参照できる。

マップの切り替え:黒色「×」印の緑ボタンをクリックして拡大、「-」印の緑ボタンをクリックして縮小、緑色の三角印をクリックして隣りの地図に切り替え


METAR-TAF: